• Join FlightAware (Why Join?)
  • Login
  • US Flag 
04:12AM EDT


 

Airport Tracker/Info


-or-


 

Live Flight TrackerFlight Track Log ✈ UAL481 ✈ 19-Jun-2013 ✈ KORD - KDEN

Flight Track Log - Related Links

Times and Time Zones

All times are in EDT time to prevent confusion due to time zone crossing. See the UAL481 flight status page for this flight to view local times or setup timezone preferences in your user account.

Time Position Orientation Groundspeed Altitude Reporting Facility
EDT Latitude Longitude Course Direction KTS MPH feet Rate Location/Type
11:11PM 41.9833 -87.9500 261° West 185 213 2,200  Level Chicago TRACON
11:12PM 41.9833 -88.0500 270° West 229 264 4,500 2,340 Climbing Chicago TRACON
11:13PM 41.9333 -88.3076 270° West  Level FlightAware Approximate
11:13PM 41.9833 -88.1333 270° West 263 303 7,200  Level Chicago TRACON
11:14PM 41.9167 -88.4436 270° West  Level FlightAware Approximate
11:14PM 41.9831 -88.2631 270° West 268 308 10,700  Level Chicago Center
11:15PM 41.9033 -88.5811 261° West  Level FlightAware Approximate
11:15PM 41.9806 -88.3856 268° West 323 372 12,200  Level Chicago Center
11:16PM 41.8871 -88.7182 261° West  Level FlightAware Approximate
11:16PM 41.9769 -88.5142 268° West 347 399 14,600  Level Chicago Center
11:17PM 41.9733 -88.6464 268° West 357 411 16,800 2,160 Climbing Chicago Center
11:18PM 41.9456 -88.8103 257° West 377 434 19,000 1,920 Climbing Chicago Center
11:19PM 41.9233 -88.9503 258° West 385 443 20,800 1,680 Climbing Chicago Center
11:20PM 41.9003 -89.0925 258° West 394 453 22,500 1,560 Climbing Chicago Center
11:21PM 41.8789 -89.2392 259° West 403 464 24,100 1,380 Climbing Chicago Center
11:22PM 41.8708 -89.3925 266° West 415 478 25,400 1,200 Climbing Chicago Center
11:23PM 41.8642 -89.5467 267° West 416 479 26,600 1,200 Climbing Chicago Center
11:24PM 41.8539 -89.7067 265° West 428 493 27,900 1,200 Climbing Chicago Center
11:25PM 41.8461 -89.8681 266° West 435 501 29,100 1,020 Climbing Chicago Center
11:26PM 41.8389 -90.0372 267° West 441 507 30,000 840 Climbing Chicago Center
11:27PM 41.8314 -90.2031 267° West 447 514 30,900 1,140 Climbing Chicago Center
11:28PM 41.8194 -90.3717 265° West 454 522 32,400 1,680 Climbing Chicago Center
11:29PM 41.8061 -90.5667 265° West 443 510 34,400 1,380 Climbing Chicago Center
11:31PM 41.7961 -90.7275 265° West 439 505 35,300 780 Climbing Chicago Center
11:32PM 41.7858 -90.8853 265° West 429 494 36,000 300 Climbing Chicago Center
11:33PM 41.7756 -91.0414 265° West 426 490 36,000  Level Chicago Center
11:34PM 41.7656 -91.1992 265° West 428 493 36,000  Level Chicago Center
11:35PM 41.7553 -91.3569 265° West 427 491 36,000  Level Chicago Center
11:36PM 41.7442 -91.5153 265° West 429 494 36,000  Level Chicago Center
11:37PM 41.7325 -91.6697 264° West 424 488 36,000  Level Chicago Center
11:38PM 41.7219 -91.8253 265° West 423 487 36,000  Level Chicago Center
11:39PM 41.7106 -91.9819 264° West 424 488 36,000  Level Chicago Center
11:40PM 41.6967 -92.1697 264° West 427 491 36,000  Level Chicago Center
11:41PM 41.6844 -92.3278 264° West 428 493 36,000  Level Chicago Center
11:42PM 41.6728 -92.4831 264° West 425 489 36,000  Level Chicago Center
11:43PM 41.6606 -92.6394 264° West 426 490 36,000  Level Chicago Center
11:43PM 41.6492 -92.7756 264° West 425 489 36,000  Level Minneapolis Center
11:45PM 41.6364 -92.9325 264° West 427 491 36,000  Level Minneapolis Center
11:46PM 41.6242 -93.0892 264° West 429 494 36,000  Level Minneapolis Center
11:47PM 41.6108 -93.2442 263° West 426 490 36,000  Level Minneapolis Center
11:48PM 41.5972 -93.4031 264° West 432 497 36,000  Level Minneapolis Center
11:49PM 41.5844 -93.5564 264° West 423 487 36,000  Level Minneapolis Center
11:50PM 41.5717 -93.7119 264° West 425 489 36,000  Level Minneapolis Center
11:51PM 41.5542 -93.9028 263° West 432 497 36,000  Level Minneapolis Center
11:52PM 41.5372 -94.0619 262° West 435 501 36,000  Level Minneapolis Center
11:53PM 41.5214 -94.2175 262° West 434 499 36,000  Level Minneapolis Center
11:54PM 41.5092 -94.3703 264° West 422 486 36,000  Level Minneapolis Center
11:55PM 41.4942 -94.5253 263° West 424 488 36,000  Level Minneapolis Center
11:56PM 41.4789 -94.6794 263° West 422 486 36,000  Level Minneapolis Center
11:57PM 41.4647 -94.8367 263° West 427 491 36,000  Level Minneapolis Center
11:58PM 41.4492 -94.9919 262° West 422 486 36,000  Level Minneapolis Center
11:59PM 41.4339 -95.1486 263° West 427 491 36,000  Level Minneapolis Center
12:00AM 41.4103 -95.3678 262° West 427 491 36,000  Level Minneapolis Center
12:01AM 41.3936 -95.5247 262° West 428 493 36,000  Level Minneapolis Center
12:02AM 41.3789 -95.6681 262° West 428 493 36,000  Level Minneapolis Center
12:03AM 41.3619 -95.8247 262° West 428 493 36,000  Level Minneapolis Center
12:04AM 41.3461 -95.9839 263° West 432 497 36,000  Level Minneapolis Center
12:05AM 41.3283 -96.1411 261° West 432 497 36,000  Level Minneapolis Center
12:06AM 41.3103 -96.2972 261° West 428 493 36,000  Level Minneapolis Center
12:07AM 41.2897 -96.4822 262° West 430 495 36,000  Level Minneapolis Center
12:08AM 41.2722 -96.6372 262° West 427 491 36,000  Level Minneapolis Center
12:09AM 41.2539 -96.7908 261° West 424 488 36,000  Level Minneapolis Center
12:10AM 41.2350 -96.9467 261° West 426 490 36,000  Level Minneapolis Center
12:11AM 41.2164 -97.1025 261° West 428 493 36,000  Level Minneapolis Center
12:12AM 41.1978 -97.2575 261° West 427 491 36,000  Level Minneapolis Center
12:13AM 41.1786 -97.4164 261° West 426 490 36,000  Level Minneapolis Center
12:14AM 41.1594 -97.5700 261° West 423 487 36,000  Level Minneapolis Center
12:15AM 41.1403 -97.7239 261° West 423 487 36,000  Level Minneapolis Center
12:16AM 41.1208 -97.8772 260° West 422 486 36,000  Level Minneapolis Center
12:17AM 41.1014 -98.0311 261° West 422 486 36,000  Level Minneapolis Center
12:18AM 41.0817 -98.1828 260° West 420 483 36,000  Level Minneapolis Center
12:19AM 41.0619 -98.3369 260° West 422 486 36,000  Level Minneapolis Center
12:20AM 41.0464 -98.4844 262° West 422 486 36,000  Level Minneapolis Center
12:21AM 41.0292 -98.6367 262° West 421 484 36,000  Level Minneapolis Center
12:22AM 41.0094 -98.7906 260° West 423 487 36,000  Level Minneapolis Center
12:23AM 40.9986 -98.8967 262° West 426 490 36,000  Level Denver Center
12:24AM 40.9839 -99.0431 262° West 422 486 36,000  Level Denver Center
12:25AM 40.9719 -99.1481 261° West 421 484 36,000  Level Minneapolis Center
12:26AM 40.9539 -99.3003 261° West 418 481 36,000  Level Minneapolis Center
12:27AM 40.9367 -99.4508 261° West 415 478 36,000  Level Minneapolis Center
12:28AM 40.9189 -99.6019 261° West 415 478 36,000  Level Minneapolis Center
12:29AM 40.9014 -99.7522 261° West 415 478 36,000  Level Minneapolis Center
12:29AM 40.8897 -99.8356 260° West 411 473 36,000  Level Denver Center
12:30AM 40.8700 -100.0019 261° West 411 473 36,000  Level Denver Center
12:31AM 40.8519 -100.1439 260° West 410 472 36,000  Level Denver Center
12:32AM 40.8342 -100.2869 261° West 411 473 36,000  Level Denver Center
12:33AM 40.8128 -100.4550 261° West 414 476 36,000  Level Denver Center
12:34AM 40.7925 -100.5969 259° West 412 474 36,000  Level Denver Center
12:35AM 40.7642 -100.7644 257° West 422 486 36,000  Level Denver Center
12:36AM 40.7383 -100.9147 257° West 414 476 36,000  Level Denver Center
12:37AM 40.7144 -101.0572 258° West 414 476 36,000  Level Denver Center
12:38AM 40.6906 -101.2000 258° West 416 479 36,000  Level Denver Center
12:39AM 40.6700 -101.3172 257° West 414 476 36,000  Level Denver Center
12:40AM 40.6383 -101.5025 257° West 407 468 36,000  Level Denver Center
12:41AM 40.6136 -101.6422 257° West 408 470 36,000  Level Denver Center
12:42AM 40.5856 -101.8033 257° West 406 467 36,000  Level Denver Center
12:43AM 40.5617 -101.9386 257° West 399 459 36,000 -60 Level Denver Center
12:44AM 40.5331 -102.0983 257° West 401 461 35,900  Descending Denver Center
12:45AM 40.5078 -102.2364 257° West 405 466 36,000 60 Climbing Denver Center
12:46AM 40.4822 -102.3756 256° West 409 471 36,100  Climbing Denver Center
12:48AM 40.4531 -102.5367 257° West 407 468 36,000 -60 Descending Denver Center
12:49AM 40.4264 -102.6739 256° West 406 467 36,000 -360 Level Denver Center
12:50AM 40.4008 -102.8053 256° West 406 467 35,300 -840 Descending Denver Center
12:51AM 40.3739 -102.9514 256° West 412 474 34,300 -1,140 Descending Denver Center
12:52AM 40.3411 -103.1283 256° West 416 479 33,100 -1,560 Descending Denver Center
12:53AM 40.3114 -103.2756 255° West 420 483 31,200 -2,100 Descending Denver Center
12:54AM 40.2842 -103.4236 256° West 420 483 28,900 -2,400 Descending Denver Center
12:55AM 40.2567 -103.5656 256° West 406 467 26,400 -2,700 Descending Denver Center
12:56AM 40.2281 -103.7103 256° West 412 474 23,500 -3,000 Descending Denver Center
12:57AM 40.1978 -103.8592 255° West 418 481 20,300 -3,000 Descending Denver Center
12:58AM 40.1397 -103.9817 238° Southwest 399 459 17,400 -2,820 Descending Denver Center
12:59AM 40.1356 -104.1275 268° West 393 452 14,700 -2,760 Descending Denver Center
01:00AM 40.1739 -104.2572 291° West 388 447 11,800 -2,400 Descending Denver Center
01:01AM 40.1764 -104.3817 272° West 344 396 9,900 -1,380 Descending Denver Center
01:02AM 40.1569 -104.4867 256° West 290 334 9,000 -600 Descending Denver Center
01:03AM 40.1131 -104.5481 227° Southwest 302 348 8,700 -600 Descending Denver Center
01:04AM 40.0514 -104.6325 226° Southwest 247 284 7,900 -720 Descending Denver Center
01:05AM 40.0050 -104.6711 213° Southwest 197 227 7,300 -780 Descending Denver Center
01:06AM 39.9525 -104.6864 193° South 197 227 6,400 -840 Descending Denver Center
01:07AM 39.9050 -104.6867 180° South 173 199 5,600 -840 Descending Denver Center
01:09AM 39.8617 -104.6732 180° South  Level Estimated
01:16AM 39.8617 -104.6732 180° South  Level Estimated
01:17AM 39.8617 -104.6732 180° South  Level Estimated
01:18AM 39.8617 -104.6732 180° South  Level Estimated